Time;durP1;ratioP1;P1;durP2;ratioP2;P2;SDS_P1;SDS_P2;PMS_P1;PMS_P2;Temp;Humidity;BMP_temperature;BMP_pressure;BME280_temperature;BME280_humidity;BME280_pressure;Samples;Min_cycle;Max_cycle;Signal;HPM_P1;HPM_P2
2023/09/08 00:00:09;;;;;;;1.45;1.35;;;;;;;21.23;nan;61889.25;5012117;28;20176;-64
2023/09/08 00:02:35;;;;;;;1.23;1.13;;;;;;;21.27;nan;62002.97;5012129;28;20176;-64
2023/09/08 00:05:00;;;;;;;0.60;0.60;;;;;;;21.09;nan;61842.72;5012092;28;20678;-64
2023/09/08 00:07:25;;;;;;;0.60;0.60;;;;;;;21.32;nan;61785.13;5011996;28;20178;-65
2023/09/08 00:09:51;;;;;;;1.10;1.10;;;;;;;21.46;nan;61879.00;5012525;28;20170;-64
2023/09/08 00:12:17;;;;;;;1.05;1.05;;;;;;;21.31;nan;61698.25;5012089;28;20207;-65
2023/09/08 00:14:42;;;;;;;1.45;1.35;;;;;;;21.15;nan;61769.00;5012040;28;20595;-64
2023/09/08 00:17:08;;;;;;;2.35;1.65;;;;;;;21.13;nan;61673.19;5012046;28;20631;-65
2023/09/08 00:19:33;;;;;;;1.30;1.20;;;;;;;20.95;nan;61561.28;5012109;28;20183;-64
2023/09/08 00:21:58;;;;;;;0.88;0.88;;;;;;;21.03;nan;61778.75;5011704;28;20568;-65
2023/09/08 00:24:24;;;;;;;0.95;0.95;;;;;;;20.97;nan;61553.16;5011768;28;20175;-63
2023/09/08 00:26:50;;;;;;;4.53;2.05;;;;;;;20.73;nan;61579.09;5012596;28;20175;-64
2023/09/08 00:29:15;;;;;;;0.80;0.80;;;;;;;20.85;nan;61412.91;5016230;28;20650;-65
2023/09/08 00:31:41;;;;;;;0.70;0.70;;;;;;;20.87;nan;61500.88;5015995;28;20550;-64
2023/09/08 00:34:07;;;;;;;0.68;0.68;;;;;;;20.83;nan;61356.13;5015852;28;20651;-64
2023/09/08 00:36:33;;;;;;;0.88;0.88;;;;;;;20.85;nan;61360.97;5015860;28;20176;-64
2023/09/08 00:38:58;;;;;;;1.27;0.93;;;;;;;20.78;nan;61352.50;5015365;28;20208;-64
2023/09/08 00:41:23;;;;;;;0.85;0.85;;;;;;;20.81;nan;61281.13;5015795;28;20175;-64
2023/09/08 00:43:50;;;;;;;1.05;0.95;;;;;;;20.12;nan;61162.44;5015840;28;20174;-64
2023/09/08 00:46:16;;;;;;;0.90;0.90;;;;;;;20.82;nan;61199.16;5015692;28;20263;-64
2023/09/08 00:48:41;;;;;;;1.75;1.65;;;;;;;20.72;nan;61115.22;5015743;28;20222;-65
2023/09/08 00:51:09;;;;;;;0.65;0.65;;;;;;;20.63;nan;61097.31;5015529;28;20203;-64
2023/09/08 00:53:35;;;;;;;0.70;0.70;;;;;;;20.53;nan;61163.97;5015319;28;20176;-64
2023/09/08 00:56:01;;;;;;;7.80;1.67;;;;;;;20.45;nan;61090.63;5015369;28;20183;-64
2023/09/08 00:58:27;;;;;;;1.00;1.00;;;;;;;20.56;nan;61206.81;5015603;28;20247;-65
2023/09/08 01:00:52;;;;;;;1.38;1.27;;;;;;;20.49;nan;61079.53;5015421;28;20192;-64
2023/09/08 01:03:18;;;;;;;0.85;0.85;;;;;;;20.45;nan;60934.38;5015155;28;20255;-64
2023/09/08 01:05:46;;;;;;;1.10;1.00;;;;;;;20.22;nan;60616.00;5015164;28;20179;-65
2023/09/08 01:08:12;;;;;;;0.68;0.68;;;;;;;20.17;nan;60078.78;5015205;28;20234;-64
2023/09/08 01:10:41;;;;;;;1.42;1.33;;;;;;;20.21;nan;59346.81;5015494;28;20231;-64
2023/09/08 01:13:06;;;;;;;0.95;0.95;;;;;;;20.12;nan;57409.34;5015093;28;20180;-64
2023/09/08 01:15:31;;;;;;;0.95;0.95;;;;;;;19.97;nan;52884.22;5014984;28;20203;-64
2023/09/08 01:17:57;;;;;;;1.27;1.20;;;;;;;19.90;nan;49180.63;5014893;28;20176;-64
2023/09/08 01:20:27;;;;;;;0.77;0.77;;;;;;;19.87;nan;46801.84;5014773;28;20282;-64
2023/09/08 01:23:21;;;;;;;0.88;0.88;;;;;;;19.98;nan;38852.00;5014999;28;20211;-64
2023/09/08 01:25:52;;;;;;;0.80;0.80;;;;;;;19.92;nan;32399.03;5014947;28;20168;-64
2023/09/08 01:28:20;;;;;;;1.38;1.27;;;;;;;19.92;nan;35032.63;5014957;28;20510;-64
2023/09/08 01:30:45;;;;;;;0.80;0.80;;;;;;;19.84;nan;35685.72;5014439;28;20214;-64
2023/09/08 01:33:11;;;;;;;1.00;1.00;;;;;;;19.73;nan;36007.31;5014414;28;20176;-65
2023/09/08 01:35:37;;;;;;;0.93;0.93;;;;;;;19.75;nan;36338.06;5014906;28;20168;-64
2023/09/08 01:38:03;;;;;;;1.25;1.20;;;;;;;19.91;nan;33385.72;5014193;28;20180;-64
2023/09/08 01:40:28;;;;;;;1.27;1.17;;;;;;;19.73;nan;32716.00;5013943;28;20172;-64
2023/09/08 01:42:53;;;;;;;0.60;0.60;;;;;;;19.66;nan;29423.06;5014321;28;20640;-65
2023/09/08 01:45:19;;;;;;;0.70;0.70;;;;;;;19.63;nan;26465.22;5014593;28;20172;-64
2023/09/08 01:47:44;;;;;;;0.90;0.90;;;;;;;19.59;nan;25806.47;5014300;28;20573;-64
2023/09/08 01:50:10;;;;;;;0.82;0.82;;;;;;;19.61;nan;23838.31;5014674;28;20172;-64
2023/09/08 01:52:35;;;;;;;0.90;0.90;;;;;;;19.75;nan;20565.88;5014680;28;20194;-64
2023/09/08 01:55:01;;;;;;;1.00;1.00;;;;;;;19.57;nan;18591.75;5018951;28;20270;-64
2023/09/08 01:57:26;;;;;;;0.60;0.60;;;;;;;19.78;nan;18600.84;5015152;28;20175;-64
2023/09/08 01:59:51;;;;;;;0.50;0.50;;;;;;;19.76;nan;15652.44;5018942;28;20196;-64
2023/09/08 02:02:17;;;;;;;1.08;0.98;;;;;;;19.73;nan;14342.50;5018617;28;20172;-64
2023/09/08 02:04:42;;;;;;;0.80;0.80;;;;;;;19.48;nan;10084.50;5014391;28;20183;-64
2023/09/08 02:07:08;;;;;;;1.00;1.00;;;;;;;19.54;nan;7800.31;5014089;28;20194;-64
2023/09/08 02:09:37;;;;;;;1.40;1.38;;;;;;;19.32;nan;5837.78;5017093;28;20617;-64
2023/09/08 02:12:03;;;;;;;1.20;1.13;;;;;;;19.28;nan;4858.72;5014751;28;20286;-64
2023/09/08 02:14:29;;;;;;;0.77;0.77;;;;;;;19.43;nan;3557.47;4919903;28;20217;-66
2023/09/08 02:16:55;;;;;;;0.70;0.70;;;;;;;19.38;nan;2253.19;4734024;28;20192;-64
2023/09/08 02:19:21;;;;;;;0.85;0.85;;;;;;;19.41;nan;1276.31;5019047;28;20192;-65
2023/09/08 02:21:46;;;;;;;0.90;0.90;;;;;;;19.36;nan;298.59;5014098;28;20172;-64
2023/09/08 02:24:12;;;;;;;1.23;1.13;;;;;;;19.28;nan;948.81;5013588;28;20554;-63
2023/09/08 02:26:38;;;;;;;0.77;0.77;;;;;;;19.30;nan;-678.66;5015186;28;20206;-64
2023/09/08 02:29:04;;;;;;;0.65;0.65;;;;;;;19.28;nan;2251.56;5016798;28;20188;-63
2023/09/08 02:31:29;;;;;;;1.30;1.23;;;;;;;19.37;nan;1275.75;5016458;28;20207;-64
2023/09/08 02:33:55;;;;;;;0.90;0.90;;;;;;;19.27;nan;-353.56;5019414;28;20184;-64
2023/09/08 02:36:25;;;;;;;0.73;0.73;;;;;;;19.09;nan;-2632.56;5018867;28;20191;-64
2023/09/08 02:38:51;;;;;;;3.80;1.23;;;;;;;19.02;nan;-4258.31;5013693;28;20172;-65
2023/09/08 02:41:17;;;;;;;0.82;0.82;;;;;;;18.96;nan;-4583.53;5013315;28;20195;-64
2023/09/08 02:43:42;;;;;;;1.02;1.00;;;;;;;18.85;nan;-6857.16;5013921;28;20224;-64
2023/09/08 02:46:09;;;;;;;1.52;1.42;;;;;;;18.92;nan;-7830.97;5016942;28;20191;-64
2023/09/08 02:48:35;;;;;;;1.10;1.10;;;;;;;18.71;nan;-8155.19;5020350;28;20175;-64
2023/09/08 02:51:00;;;;;;;1.00;1.00;;;;;;;18.78;nan;-7506.31;5014094;28;20286;-64
2023/09/08 02:53:28;;;;;;;0.88;0.88;;;;;;;18.62;nan;-8155.06;5017917;28;20635;-64
2023/09/08 02:55:55;;;;;;;1.10;1.05;;;;;;;18.75;nan;-9452.75;5019336;28;20699;-65
2023/09/08 02:58:20;;;;;;;1.15;1.15;;;;;;;18.62;nan;-10100.72;5022444;28;20666;-63
2023/09/08 03:00:46;;;;;;;0.65;0.65;;;;;;;18.87;nan;-9453.22;5019636;28;20239;-63
2023/09/08 03:03:11;;;;;;;1.00;1.00;;;;;;;18.74;nan;-10749.72;5014339;28;20220;-64
2023/09/08 03:05:36;;;;;;;1.08;0.98;;;;;;;18.70;nan;-11397.72;5017508;28;20176;-64
2023/09/08 03:08:03;;;;;;;1.40;1.33;;;;;;;18.62;nan;-12045.25;5015085;28;20227;-64
2023/09/08 03:10:28;;;;;;;1.08;1.00;;;;;;;18.61;nan;-12369.09;5012946;28;20176;-63
2023/09/08 03:12:54;;;;;;;0.90;0.90;;;;;;;18.48;nan;-12368.09;5014966;28;20649;-63
2023/09/08 03:15:20;;;;;;;0.68;0.68;;;;;;;18.57;nan;-11396.84;5013556;28;20656;-64
2023/09/08 03:17:45;;;;;;;0.98;0.98;;;;;;;18.70;nan;-10101.09;5013120;28;20184;-64
2023/09/08 03:20:13;;;;;;;1.52;1.42;;;;;;;18.62;nan;-10424.88;5021430;28;20183;-64
2023/09/08 03:22:38;;;;;;;1.35;1.25;;;;;;;18.70;nan;-11073.66;5017095;28;20648;-63
2023/09/08 03:25:04;;;;;;;1.63;1.52;;;;;;;18.49;nan;-12368.19;5012841;28;20175;-64
2023/09/08 03:27:30;;;;;;;1.05;1.05;;;;;;;18.64;nan;-10425.00;5014874;28;20230;-64
2023/09/08 03:29:55;;;;;;;1.48;1.38;;;;;;;18.78;nan;-10749.94;5014744;28;20237;-63
2023/09/08 03:32:21;;;;;;;0.90;0.90;;;;;;;18.75;nan;-11073.94;5012715;28;20679;-64
2023/09/08 03:34:46;;;;;;;1.38;1.27;;;;;;;18.73;nan;-11397.97;5012632;28;20184;-64
2023/09/08 03:37:11;;;;;;;1.50;1.40;;;;;;;18.57;nan;-11720.84;5012366;28;20172;-64
2023/09/08 03:39:37;;;;;;;1.10;1.10;;;;;;;18.72;nan;-11073.75;5012358;28;20200;-64
2023/09/08 03:42:02;;;;;;;1.38;1.30;;;;;;;18.68;nan;-10425.22;5012309;28;20207;-64
2023/09/08 03:44:28;;;;;;;1.60;1.50;;;;;;;18.54;nan;-11396.69;5016320;28;20184;-64
2023/09/08 03:46:53;;;;;;;1.13;1.13;;;;;;;18.53;nan;-12044.59;5013298;28;20556;-64
2023/09/08 03:49:19;;;;;;;1.10;1.00;;;;;;;18.53;nan;-11396.63;5014953;28;20567;-64
2023/09/08 03:51:45;;;;;;;1.15;1.15;;;;;;;18.64;nan;-11721.41;5012942;28;20369;-63
2023/09/08 03:54:10;;;;;;;1.10;1.10;;;;;;;18.44;nan;-12367.75;5012404;28;20706;-63
2023/09/08 03:56:36;;;;;;;1.00;1.00;;;;;;;18.54;nan;-12044.63;5018900;28;20176;-64
2023/09/08 03:59:01;;;;;;;1.15;1.15;;;;;;;18.68;nan;-11073.53;5020763;28;20187;-63
2023/09/08 04:01:26;;;;;;;1.50;1.40;;;;;;;18.70;nan;-10749.47;5016713;28;20314;-63
2023/09/08 04:03:52;;;;;;;1.23;1.17;;;;;;;18.63;nan;-10424.97;5018761;28;20670;-63
2023/09/08 04:06:17;;;;;;;0.90;0.90;;;;;;;18.79;nan;-10101.50;5014371;28;20270;-64
2023/09/08 04:08:43;;;;;;;0.88;0.88;;;;;;;18.80;nan;-10750.06;5018703;28;20261;-64
2023/09/08 04:11:08;;;;;;;1.10;1.10;;;;;;;18.67;nan;-10100.97;5013782;28;20204;-64
2023/09/08 04:13:33;;;;;;;4.15;1.98;;;;;;;18.88;nan;-8804.41;5016198;28;20217;-65
2023/09/08 04:15:59;;;;;;;1.33;1.23;;;;;;;18.85;nan;-8804.34;5019589;28;20187;-64
2023/09/08 04:18:24;;;;;;;1.10;1.10;;;;;;;18.85;nan;-8804.34;5021473;28;20175;-64
2023/09/08 04:20:50;;;;;;;1.30;1.20;;;;;;;18.94;nan;-8804.56;5019710;28;20186;-65
2023/09/08 04:23:15;;;;;;;1.85;1.75;;;;;;;18.87;nan;-8155.44;5018728;28;20175;-64
2023/09/08 04:25:40;;;;;;;0.60;0.60;;;;;;;18.90;nan;-7506.38;5018766;28;20659;-64
2023/09/08 04:28:06;;;;;;;1.05;1.02;;;;;;;18.98;nan;-7181.75;5010731;28;20184;-64
2023/09/08 04:30:31;;;;;;;0.90;0.90;;;;;;;18.99;nan;-7831.03;4999143;28;20188;-64
2023/09/08 04:32:57;;;;;;;0.88;0.88;;;;;;;18.91;nan;-6857.13;5011492;28;20179;-64
2023/09/08 04:35:22;;;;;;;1.05;1.05;;;;;;;19.04;nan;-6857.06;5011724;28;20182;-64
2023/09/08 04:37:48;;;;;;;1.33;1.23;;;;;;;19.11;nan;-5232.78;5011836;28;20267;-63
2023/09/08 04:40:14;;;;;;;1.58;1.48;;;;;;;19.26;nan;-6207.19;5011532;28;20643;-64
2023/09/08 04:42:39;;;;;;;0.95;0.95;;;;;;;19.38;nan;-6856.84;5011552;28;20171;-64
2023/09/08 04:45:05;;;;;;;1.35;1.25;;;;;;;19.49;nan;-6531.78;5011727;28;20171;-65
2023/09/08 04:47:31;;;;;;;0.65;0.65;;;;;;;19.60;nan;-6531.69;5011235;28;20184;-64
2023/09/08 04:49:56;;;;;;;1.58;1.48;;;;;;;19.71;nan;-6206.41;5011326;28;20674;-64
2023/09/08 04:52:21;;;;;;;0.63;0.63;;;;;;;19.76;nan;-4905.41;5011364;28;20652;-64
2023/09/08 04:54:47;;;;;;;0.80;0.80;;;;;;;19.78;nan;-4254.63;5011057;28;20176;-64
2023/09/08 04:57:12;;;;;;;1.30;1.20;;;;;;;19.97;nan;-1648.91;5011569;28;20180;-65
2023/09/08 04:59:39;;;;;;;2.88;1.50;;;;;;;20.12;nan;3243.16;5011066;28;20282;-65
2023/09/08 05:02:04;;;;;;;1.60;1.50;;;;;;;20.23;nan;9451.75;5006964;28;20648;-65
2023/09/08 05:04:30;;;;;;;1.88;1.77;;;;;;;20.16;nan;10757.69;4991887;28;20200;-64
2023/09/08 05:06:55;;;;;;;1.20;1.17;;;;;;;20.54;nan;13387.88;4991332;28;20230;-64
2023/09/08 05:09:21;;;;;;;0.80;0.80;;;;;;;20.74;nan;17328.50;4991628;28;20684;-65
2023/09/08 05:11:46;;;;;;;0.88;0.88;;;;;;;20.88;nan;20944.88;4990976;28;20549;-65
2023/09/08 05:14:11;;;;;;;1.20;1.20;;;;;;;20.99;nan;22264.50;4994450;28;20169;-64
2023/09/08 05:16:44;;;;;;;1.58;1.48;;;;;;;20.95;nan;26866.41;4995154;28;20536;-64
2023/09/08 05:19:10;;;;;;;2.08;1.02;;;;;;;21.26;nan;29518.09;4995226;28;20524;-64
2023/09/08 05:21:36;;;;;;;1.38;1.23;;;;;;;21.45;nan;34807.28;4994904;28;20180;-65
2023/09/08 05:24:02;;;;;;;0.80;0.80;;;;;;;21.37;nan;35462.34;4994977;28;20181;-65
2023/09/08 05:26:28;;;;;;;1.33;1.23;;;;;;;21.52;nan;42952.53;4994559;28;20182;-66
2023/09/08 05:28:53;;;;;;;1.13;0.90;;;;;;;21.46;nan;46170.06;4995030;28;20180;-64
2023/09/08 05:31:18;;;;;;;1.17;1.13;;;;;;;21.55;nan;45492.59;4994841;28;20232;-63
2023/09/08 05:33:44;;;;;;;1.35;1.27;;;;;;;21.55;nan;50689.66;4994932;28;20555;-66
2023/09/08 05:36:09;;;;;;;1.13;1.13;;;;;;;21.70;nan;51732.75;4995581;28;20192;-65
2023/09/08 05:38:34;;;;;;;1.13;1.13;;;;;;;21.76;nan;52558.16;4994658;28;20177;-65
2023/09/08 05:41:00;;;;;;;1.38;1.33;;;;;;;21.72;nan;49845.28;4994692;28;20179;-63
2023/09/08 05:43:25;;;;;;;1.80;1.70;;;;;;;19.93;nan;51607.88;4994873;28;20183;-65
2023/09/08 05:45:51;;;;;;;0.98;0.98;;;;;;;21.56;nan;51950.44;4994762;28;20534;-64
2023/09/08 05:48:16;;;;;;;1.00;1.00;;;;;;;21.88;nan;54373.59;4994624;28;20177;-63
2023/09/08 05:50:42;;;;;;;0.82;0.82;;;;;;;21.71;nan;53432.66;4994450;28;20193;-65
2023/09/08 05:53:07;;;;;;;1.13;1.13;;;;;;;21.71;nan;54039.81;4994242;28;20659;-64
2023/09/08 05:55:33;;;;;;;1.05;1.05;;;;;;;21.86;nan;53110.28;4994356;28;20165;-65
2023/09/08 05:57:58;;;;;;;1.20;1.10;;;;;;;22.08;nan;55336.09;4994818;28;20168;-64
2023/09/08 06:00:24;;;;;;;0.73;0.73;;;;;;;22.19;nan;55355.72;4994652;28;20176;-64
2023/09/08 06:02:49;;;;;;;4.75;2.15;;;;;;;22.12;nan;55457.09;4994444;28;20615;-64
2023/09/08 06:05:15;;;;;;;1.35;1.25;;;;;;;22.14;nan;56381.50;4995191;28;20176;-64
2023/09/08 06:07:40;;;;;;;1.65;1.55;;;;;;;22.20;nan;55844.69;5018632;28;20234;-65
2023/09/08 06:10:06;;;;;;;0.70;0.70;;;;;;;22.58;nan;55761.34;5013738;28;20639;-63
2023/09/08 06:12:31;;;;;;;1.00;1.00;;;;;;;22.58;nan;57134.34;5013814;28;20204;-63
2023/09/08 06:14:56;;;;;;;1.40;1.30;;;;;;;22.30;nan;58030.91;5013719;28;20210;-63
2023/09/08 06:17:22;;;;;;;1.00;1.00;;;;;;;22.59;nan;57791.44;5013786;28;20183;-64
2023/09/08 06:19:47;;;;;;;0.88;0.88;;;;;;;22.35;nan;58185.03;5014191;28;20212;-64
2023/09/08 06:22:13;;;;;;;2.53;2.25;;;;;;;22.43;nan;58822.63;5014003;28;20195;-63
2023/09/08 06:24:38;;;;;;;0.80;0.80;;;;;;;22.65;nan;58845.97;5013197;28;20176;-64
2023/09/08 06:27:04;;;;;;;1.33;1.23;;;;;;;22.23;nan;58093.59;5013753;28;20596;-64
2023/09/08 06:29:29;;;;;;;0.73;0.73;;;;;;;22.59;nan;58301.38;5013491;28;20168;-64
2023/09/08 06:31:54;;;;;;;0.82;0.82;;;;;;;22.51;nan;58495.69;5013497;28;20200;-63
2023/09/08 06:34:23;;;;;;;1.27;1.23;;;;;;;22.73;nan;59178.00;5013526;28;20658;-64
2023/09/08 06:36:49;;;;;;;0.90;0.90;;;;;;;22.83;nan;59657.03;5012165;28;20579;-64
2023/09/08 06:39:14;;;;;;;0.90;0.90;;;;;;;23.07;nan;59709.47;5013035;28;20180;-63
2023/09/08 06:41:39;;;;;;;0.75;0.75;;;;;;;23.07;nan;59740.16;5013777;28;20192;-65
2023/09/08 06:44:05;;;;;;;0.70;0.70;;;;;;;23.27;nan;59829.91;5013344;28;20262;-64
2023/09/08 06:46:30;;;;;;;1.05;1.05;;;;;;;23.54;nan;59919.63;5015308;28;20592;-65
2023/09/08 06:48:56;;;;;;;1.23;1.17;;;;;;;23.67;nan;60241.16;4996975;28;20182;-65
2023/09/08 06:51:21;;;;;;;0.68;0.68;;;;;;;23.78;nan;60162.03;5011273;28;20199;-64
2023/09/08 06:53:56;;;;;;;1.08;1.08;;;;;;;23.93;nan;60324.19;5013115;28;20557;-64
2023/09/08 06:56:21;;;;;;;1.20;1.10;;;;;;;24.30;nan;60677.97;5013225;28;20167;-64
2023/09/08 06:58:47;;;;;;;0.90;0.90;;;;;;;24.44;nan;60749.00;5013037;28;20326;-64
2023/09/08 07:01:12;;;;;;;1.00;1.00;;;;;;;24.33;nan;61091.25;5013111;28;20183;-63
2023/09/08 07:03:37;;;;;;;2.10;1.90;;;;;;;24.25;nan;61202.41;5012978;28;20703;-63
2023/09/08 07:06:03;;;;;;;1.40;1.35;;;;;;;24.38;nan;61005.47;5013069;28;20180;-63
2023/09/08 07:08:29;;;;;;;1.85;1.33;;;;;;;24.53;nan;61064.66;5012839;28;20224;-64
2023/09/08 07:10:54;;;;;;;1.60;1.50;;;;;;;24.49;nan;61240.38;5012846;28;20188;-65
2023/09/08 07:13:20;;;;;;;1.67;1.58;;;;;;;24.52;nan;61269.88;5012794;28;20258;-65
2023/09/08 07:15:45;;;;;;;0.77;0.77;;;;;;;24.87;nan;61509.41;5012849;28;20226;-64
2023/09/08 07:18:10;;;;;;;0.77;0.77;;;;;;;24.81;nan;61471.25;5012870;28;20266;-65
2023/09/08 07:20:36;;;;;;;0.95;0.95;;;;;;;24.99;nan;61364.03;5012871;28;20720;-64
2023/09/08 07:23:01;;;;;;;1.52;1.42;;;;;;;25.18;nan;61407.84;5012672;28;20172;-64
2023/09/08 07:25:26;;;;;;;1.42;1.33;;;;;;;25.34;nan;61496.50;5012443;28;20221;-64
2023/09/08 07:27:53;;;;;;;3.72;1.27;;;;;;;25.14;nan;61482.34;5012461;28;20172;-65
2023/09/08 07:30:19;;;;;;;1.13;1.13;;;;;;;24.88;nan;61544.50;5012418;28;20175;-62
2023/09/08 07:32:45;;;;;;;1.02;1.02;;;;;;;25.03;nan;61595.44;5010100;28;20311;-64
2023/09/08 07:35:14;;;;;;;0.80;0.80;;;;;;;25.17;nan;62235.75;5011649;28;20263;-62
2023/09/08 07:37:42;;;;;;;0.88;0.88;;;;;;;25.35;nan;62191.44;5011427;28;20203;-63
2023/09/08 07:40:11;;;;;;;1.48;1.38;;;;;;;25.52;nan;62231.75;5011980;28;20175;-63
2023/09/08 07:42:37;;;;;;;0.90;0.90;;;;;;;25.38;nan;62346.63;5011058;28;20230;-62
2023/09/08 07:45:02;;;;;;;0.50;0.50;;;;;;;25.47;nan;62257.47;4991887;28;20609;-63
2023/09/08 07:47:28;;;;;;;1.38;0.85;;;;;;;25.82;nan;62351.25;4992496;28;20641;-62
2023/09/08 07:50:31;;;;;;;0.68;0.68;;;;;;;26.08;nan;62467.38;4992047;28;20177;-63
2023/09/08 07:52:57;;;;;;;0.82;0.82;;;;;;;26.22;nan;62404.22;4990699;28;20184;-62
2023/09/08 07:55:23;;;;;;;1.60;1.45;;;;;;;26.47;nan;62477.34;4992159;28;20232;-63
2023/09/08 07:57:50;;;;;;;0.80;0.80;;;;;;;26.91;nan;62550.72;4992185;28;20176;-63
2023/09/08 08:00:17;;;;;;;0.57;0.57;;;;;;;27.35;nan;62642.50;4992090;28;20711;-63
2023/09/08 08:02:45;;;;;;;1.00;0.93;;;;;;;27.47;nan;62619.47;4991834;28;20565;-63
2023/09/08 08:05:10;;;;;;;1.02;1.02;;;;;;;27.83;nan;62691.69;4991782;28;20168;-63
2023/09/08 08:07:35;;;;;;;1.17;1.10;;;;;;;27.69;nan;62652.00;4991501;28;20641;-62
2023/09/08 08:10:01;;;;;;;0.90;0.90;;;;;;;27.41;nan;62619.91;4992114;28;20264;-63
2023/09/08 08:12:27;;;;;;;0.75;0.75;;;;;;;26.94;nan;62697.84;4991930;28;20199;-64
2023/09/08 08:14:52;;;;;;;0.60;0.60;;;;;;;26.96;nan;62563.75;4990961;28;20175;-62
2023/09/08 08:17:19;;;;;;;0.90;0.90;;;;;;;26.53;nan;62515.09;5015107;28;20191;-62
2023/09/08 08:19:44;;;;;;;0.93;0.75;;;;;;;26.49;nan;62720.81;5011022;28;20574;-64
2023/09/08 08:22:10;;;;;;;0.60;0.60;;;;;;;26.36;nan;62523.00;5011316;28;20182;-63
2023/09/08 08:24:35;;;;;;;1.00;1.00;;;;;;;26.06;nan;62414.75;5011394;28;20671;-63
2023/09/08 08:27:02;;;;;;;0.82;0.82;;;;;;;26.25;nan;62518.28;5011118;28;20246;-62
2023/09/08 08:29:28;;;;;;;0.70;0.70;;;;;;;26.26;nan;62456.53;5011265;28;20164;-64
2023/09/08 08:31:54;;;;;;;0.82;0.82;;;;;;;26.12;nan;62605.56;5011046;28;20282;-63
2023/09/08 08:34:19;;;;;;;1.42;1.00;;;;;;;26.22;nan;62564.06;5011160;28;20210;-64
2023/09/08 08:36:45;;;;;;;0.88;0.88;;;;;;;26.29;nan;62630.31;5010952;28;20258;-63
2023/09/08 08:39:10;;;;;;;0.82;0.82;;;;;;;26.37;nan;62526.75;5011059;28;20187;-63
2023/09/08 08:41:39;;;;;;;0.82;0.75;;;;;;;26.63;nan;62566.44;5011015;28;20191;-65
2023/09/08 08:44:06;;;;;;;0.82;0.82;;;;;;;26.99;nan;62696.28;5011133;28;20639;-63
2023/09/08 08:46:33;;;;;;;0.65;0.65;;;;;;;27.19;nan;62595.31;5010730;28;20168;-64
2023/09/08 08:49:02;;;;;;;0.82;0.82;;;;;;;27.12;nan;62584.66;5013581;28;20182;-64
2023/09/08 08:51:30;;;;;;;2.28;1.38;;;;;;;27.45;nan;62619.25;5015081;28;20199;-63
2023/09/08 08:53:55;;;;;;;1.52;1.42;;;;;;;27.66;nan;62664.31;5014930;28;20172;-64
2023/09/08 08:56:22;;;;;;;0.40;0.40;;;;;;;27.50;nan;62709.00;5015028;28;20167;-64
2023/09/08 08:58:48;;;;;;;0.60;0.60;;;;;;;27.40;nan;62753.25;5015037;28;20266;-63
2023/09/08 09:01:16;;;;;;;1.08;0.98;;;;;;;27.56;nan;62655.50;5013311;28;20180;-64
2023/09/08 09:03:43;;;;;;;0.68;0.68;;;;;;;27.81;nan;62702.53;5014709;28;20204;-65
2023/09/08 09:06:10;;;;;;;0.70;0.70;;;;;;;27.53;nan;62678.31;5014727;28;20172;-64
2023/09/08 09:08:37;;;;;;;0.90;0.90;;;;;;;27.41;nan;62740.69;5014424;28;20230;-65
2023/09/08 09:11:02;;;;;;;1.05;1.05;;;;;;;27.23;nan;62534.84;5014649;28;20282;-64
2023/09/08 09:13:27;;;;;;;0.57;0.57;;;;;;;27.46;nan;62877.72;5015048;28;20758;-63
2023/09/08 09:15:58;;;;;;;1.00;0.98;;;;;;;27.88;nan;62831.41;5014538;28;20179;-64
2023/09/08 09:18:24;;;;;;;0.82;0.82;;;;;;;28.09;nan;62986.94;5014659;28;20550;-63
2023/09/08 09:20:55;;;;;;;0.60;0.60;;;;;;;28.13;nan;62728.13;5014595;28;20171;-64
2023/09/08 09:23:34;;;;;;;1.42;1.33;;;;;;;28.45;nan;62795.78;5014446;28;20179;-63
2023/09/08 09:26:08;;;;;;;1.27;1.17;;;;;;;28.53;nan;62807.63;5014508;28;20259;-63
2023/09/08 09:28:33;;;;;;;0.95;0.80;;;;;;;28.07;nan;64209.69;5015034;28;20172;-64
2023/09/08 09:30:59;;;;;;;0.60;0.60;;;;;;;28.19;nan;62992.06;5015236;28;20213;-63
2023/09/08 09:33:24;;;;;;;0.50;0.50;;;;;;;27.92;nan;62764.47;5014333;28;20573;-64
2023/09/08 09:35:54;;;;;;;0.68;0.68;;;;;;;27.98;nan;62777.19;5014002;28;20247;-62
2023/09/08 09:38:20;;;;;;;0.98;0.93;;;;;;;28.24;nan;62809.09;5014362;28;20181;-64
2023/09/08 09:40:47;;;;;;;0.70;0.70;;;;;;;28.05;nan;62751.06;5012968;28;20176;-63
2023/09/08 09:43:14;;;;;;;0.40;0.40;;;;;;;28.30;nan;62781.78;5014494;28;20529;-62
2023/09/08 09:45:41;;;;;;;0.85;0.85;;;;;;;28.41;nan;62822.75;5014688;28;20163;-64
2023/09/08 09:48:08;;;;;;;1.52;0.70;;;;;;;28.61;nan;62821.47;5014650;28;20258;-63
2023/09/08 09:50:41;;;;;;;0.70;0.70;;;;;;;28.45;nan;62851.03;5014692;28;20654;-63
2023/09/08 09:53:14;;;;;;;1.23;1.10;;;;;;;28.26;nan;62873.91;5015150;28;20171;-63
2023/09/08 09:55:41;;;;;;;0.60;0.60;;;;;;;27.86;nan;62678.78;5014405;28;20245;-64
2023/09/08 09:58:10;;;;;;;0.70;0.70;;;;;;;27.85;nan;62830.00;5014415;28;20225;-62
2023/09/08 10:00:36;;;;;;;0.55;0.55;;;;;;;27.69;nan;62644.13;5013547;28;20226;-62
2023/09/08 10:03:03;;;;;;;0.40;0.40;;;;;;;28.07;nan;62879.50;5014280;28;20275;-63
2023/09/08 10:05:29;;;;;;;0.60;0.60;;;;;;;28.33;nan;62903.00;5014352;28;20179;-63
2023/09/08 10:07:55;;;;;;;0.60;0.60;;;;;;;28.14;nan;62750.31;5014333;28;20227;-64
2023/09/08 10:10:21;;;;;;;0.50;0.50;;;;;;;27.76;nan;62704.66;5013941;28;20190;-63
2023/09/08 10:12:54;;;;;;;0.55;0.55;;;;;;;27.39;nan;62756.75;5014516;28;20588;-64
2023/09/08 10:15:24;;;;;;;0.70;0.70;;;;;;;27.58;nan;62731.88;5001743;28;20191;-64
2023/09/08 10:17:57;;;;;;;0.63;0.63;;;;;;;27.90;nan;62854.72;4995052;28;20523;-63
2023/09/08 10:20:27;;;;;;;1.05;0.68;;;;;;;27.48;nan;62746.06;4994619;28;20171;-65
2023/09/08 10:22:56;;;;;;;0.88;0.88;;;;;;;27.50;nan;62657.06;4994196;28;20180;-64
2023/09/08 10:25:24;;;;;;;0.85;0.85;;;;;;;27.36;nan;62643.66;4994633;28;20179;-64
2023/09/08 10:27:50;;;;;;;0.95;0.95;;;;;;;27.64;nan;62925.25;4994440;28;20632;-63
2023/09/08 10:30:17;;;;;;;0.77;0.77;;;;;;;28.07;nan;62753.34;4994211;28;20176;-63
2023/09/08 10:32:43;;;;;;;0.65;0.65;;;;;;;27.88;nan;62736.81;4994060;28;20216;-64
2023/09/08 10:35:09;;;;;;;0.60;0.60;;;;;;;27.05;nan;64327.19;4993989;28;20173;-65
2023/09/08 10:37:35;;;;;;;0.47;0.47;;;;;;;28.13;nan;62761.72;4991645;28;20184;-66
2023/09/08 10:40:22;;;;;;;0.57;0.57;;;;;;;28.20;nan;62841.31;4993924;28;20199;-66
2023/09/08 10:42:48;;;;;;;0.50;0.50;;;;;;;28.17;nan;62797.84;4994163;28;20176;-64
2023/09/08 10:45:20;;;;;;;0.60;0.60;;;;;;;28.30;nan;62823.84;4993883;28;20322;-64
2023/09/08 10:47:45;;;;;;;0.50;0.50;;;;;;;27.77;nan;62716.31;4992371;28;20191;-65
2023/09/08 10:50:26;;;;;;;0.68;0.68;;;;;;;27.80;nan;62766.47;4993779;28;20172;-65
2023/09/08 10:53:07;;;;;;;1.00;1.00;;;;;;;28.41;nan;62794.41;4993514;28;20204;-65
2023/09/08 10:55:53;;;;;;;0.68;0.68;;;;;;;28.02;nan;62744.41;4993485;28;20172;-64
2023/09/08 10:58:32;;;;;;;0.45;0.45;;;;;;;28.01;nan;62733.34;4993405;28;20225;-65
2023/09/08 11:01:01;;;;;;;0.50;0.50;;;;;;;27.42;nan;62621.06;4993446;28;20590;-66
2023/09/08 11:03:49;;;;;;;2.17;0.93;;;;;;;27.17;nan;62711.69;4993082;28;20191;-64
2023/09/08 11:06:18;;;;;;;0.93;0.93;;;;;;;27.47;nan;62624.16;4993429;28;20183;-65
2023/09/08 11:08:45;;;;;;;0.57;0.57;;;;;;;27.24;nan;62740.69;4993378;28;20259;-66
2023/09/08 11:11:12;;;;;;;0.50;0.50;;;;;;;26.89;nan;62579.31;4993295;28;20571;-65
2023/09/08 11:13:39;;;;;;;0.63;0.63;;;;;;;27.10;nan;62634.84;4992799;28;20180;-65
2023/09/08 11:16:05;;;;;;;0.47;0.47;;;;;;;27.22;nan;62653.84;4992845;28;20324;-64
2023/09/08 11:18:33;;;;;;;3.03;1.48;;;;;;;27.37;nan;62673.09;4992826;28;20251;-65
2023/09/08 11:21:02;;;;;;;0.98;0.98;;;;;;;27.38;nan;62647.97;4992653;28;20315;-64
2023/09/08 11:23:27;;;;;;;0.50;0.50;;;;;;;27.24;nan;62619.97;4992829;28;20196;-64
2023/09/08 11:25:53;;;;;;;0.70;0.70;;;;;;;27.19;nan;62597.94;4993110;28;20702;-64
2023/09/08 11:28:21;;;;;;;0.40;0.40;;;;;;;27.37;nan;62692.03;4992435;28;20172;-63
2023/09/08 11:30:48;;;;;;;0.60;0.60;;;;;;;27.56;nan;62684.94;4992727;28;20184;-64
2023/09/08 11:33:24;;;;;;;0.70;0.70;;;;;;;27.79;nan;62634.53;4991329;28;20555;-65
2023/09/08 11:35:52;;;;;;;0.63;0.63;;;;;;;28.05;nan;62782.59;4993048;28;20176;-65
2023/09/08 11:38:17;;;;;;;0.50;0.50;;;;;;;28.18;nan;62781.19;4992884;28;20226;-66
2023/09/08 11:40:43;;;;;;;0.63;0.57;;;;;;;28.39;nan;62812.59;4992798;28;20180;-64
2023/09/08 11:43:08;;;;;;;0.80;0.80;;;;;;;28.46;nan;62796.94;4992531;28;20231;-64
2023/09/08 11:45:35;;;;;;;0.50;0.50;;;;;;;28.46;nan;62768.03;4992844;28;20180;-63